createdAt,value
2023-04-21T00:00:21.450Z,85.64
2023-04-21T00:03:09.749Z,85.63
2023-04-21T00:05:42.405Z,85.58
2023-04-21T00:08:10.262Z,85.58
2023-04-21T00:10:37.998Z,85.54
2023-04-21T00:13:05.936Z,85.48
2023-04-21T00:15:33.796Z,85.41
2023-04-21T00:18:01.713Z,85.41
2023-04-21T00:20:30.657Z,85.54
2023-04-21T00:23:00.172Z,85.37
2023-04-21T00:25:28.104Z,85.29
2023-04-21T00:27:56.026Z,85.27
2023-04-21T00:30:24.279Z,85.34
2023-04-21T00:32:52.248Z,85.29
2023-04-21T00:35:20.139Z,85.21
2023-04-21T00:37:50.143Z,85.22
2023-04-21T00:40:18.036Z,85.22
2023-04-21T00:42:45.930Z,85.11
2023-04-21T00:45:15.485Z,85.10
2023-04-21T00:47:43.539Z,85.11
2023-04-21T00:50:13.102Z,85.16
2023-04-21T00:52:43.895Z,85.18
2023-04-21T00:55:11.822Z,85.08
2023-04-21T00:57:41.029Z,85.26
2023-04-21T01:00:10.592Z,85.46
2023-04-21T01:02:40.247Z,85.61
2023-04-21T01:05:09.545Z,85.52
2023-04-21T01:07:39.579Z,85.59
2023-04-21T01:10:08.434Z,85.54
2023-04-21T01:12:44.318Z,85.58
2023-04-21T01:15:15.260Z,85.58
2023-04-21T01:17:43.793Z,85.56
2023-04-21T01:20:15.156Z,85.61
2023-04-21T01:22:44.909Z,85.51
2023-04-21T01:25:12.774Z,85.51
2023-04-21T01:27:40.694Z,85.43
2023-04-21T01:30:10.102Z,85.54
2023-04-21T01:32:38.122Z,85.47
2023-04-21T01:35:07.108Z,85.47
2023-04-21T01:37:35.611Z,85.56
2023-04-21T01:40:08.647Z,85.49
2023-04-21T01:42:40.615Z,85.43
2023-04-21T01:45:09.854Z,85.42
2023-04-21T01:47:38.712Z,85.46
2023-04-21T01:50:08.425Z,85.39
2023-04-21T01:52:36.262Z,85.37
2023-04-21T01:55:04.431Z,85.41
2023-04-21T01:57:32.201Z,85.34
2023-04-21T02:00:00.089Z,85.32
2023-04-21T02:02:28.811Z,85.23
2023-04-21T02:04:56.789Z,85.16
2023-04-21T02:07:24.675Z,85.33
2023-04-21T02:09:54.135Z,85.38
2023-04-21T02:12:21.956Z,85.31
2023-04-21T02:14:49.748Z,85.30
2023-04-21T02:17:19.377Z,85.27
2023-04-21T02:19:47.845Z,85.32
2023-04-21T02:22:15.701Z,85.28
2023-04-21T02:24:43.640Z,85.44
2023-04-21T02:27:13.264Z,85.61
2023-04-21T02:29:41.290Z,85.50
2023-04-21T02:32:22.337Z,85.44
2023-04-21T02:34:53.873Z,85.52
2023-04-21T02:37:21.772Z,85.48
2023-04-21T02:39:49.521Z,85.32
2023-04-21T02:42:17.479Z,85.46
2023-04-21T02:44:45.318Z,85.41
2023-04-21T02:47:16.596Z,85.53
2023-04-21T02:49:44.688Z,85.34
2023-04-21T02:52:13.397Z,85.44
2023-04-21T02:54:41.148Z,85.47
2023-04-21T02:57:09.929Z,85.47
2023-04-21T02:59:37.738Z,85.41
2023-04-21T03:02:05.608Z,85.49
2023-04-21T03:04:34.189Z,85.46
2023-04-21T03:07:02.169Z,85.46
2023-04-21T03:09:30.060Z,85.30
2023-04-21T03:11:57.790Z,85.50
2023-04-21T03:14:25.629Z,85.49
2023-04-21T03:16:53.497Z,85.47
2023-04-21T03:19:21.578Z,85.47
2023-04-21T03:21:49.535Z,85.42
2023-04-21T03:24:17.369Z,85.52
2023-04-21T03:26:45.160Z,85.56
2023-04-21T03:29:13.100Z,85.93
2023-04-21T03:31:40.938Z,85.76
2023-04-21T03:34:08.886Z,85.99
2023-04-21T03:36:36.765Z,85.82
2023-04-21T03:39:18.800Z,85.97
2023-04-21T03:41:48.244Z,86.02
2023-04-21T03:44:16.199Z,85.99
2023-04-21T03:46:44.208Z,85.99
2023-04-21T03:49:11.991Z,85.96
2023-04-21T03:51:39.753Z,85.92
2023-04-21T03:54:08.452Z,86.12
2023-04-21T03:56:36.291Z,86.16
2023-04-21T03:59:04.235Z,86.23
2023-04-21T04:01:32.609Z,86.16
2023-04-21T04:04:00.621Z,86.16
2023-04-21T04:06:28.663Z,86.22
2023-04-21T04:08:56.449Z,86.28
2023-04-21T04:11:24.206Z,86.29
2023-04-21T04:13:52.139Z,86.15
2023-04-21T04:16:19.969Z,86.20
2023-04-21T04:18:50.083Z,86.20
2023-04-21T04:21:17.892Z,86.14
2023-04-21T04:23:45.941Z,86.08
2023-04-21T04:26:13.745Z,86.08
2023-04-21T04:28:42.306Z,86.14
2023-04-21T04:31:10.073Z,86.17
2023-04-21T04:33:42.644Z,86.12
2023-04-21T04:36:12.042Z,86.01
2023-04-21T04:38:40.335Z,86.00
2023-04-21T04:41:09.078Z,86.05
2023-04-21T04:43:38.730Z,86.02
2023-04-21T04:46:07.618Z,86.09
2023-04-21T04:48:35.479Z,86.00
2023-04-21T04:51:03.386Z,85.96
2023-04-21T04:53:31.545Z,85.91
2023-04-21T04:55:59.683Z,85.83
2023-04-21T04:58:27.485Z,85.86
2023-04-21T05:00:55.321Z,85.85
2023-04-21T05:03:23.133Z,85.76
2023-04-21T05:05:51.007Z,85.82
2023-04-21T05:08:18.976Z,85.84
2023-04-21T05:10:46.728Z,85.85
2023-04-21T05:13:17.503Z,85.84
2023-04-21T05:15:45.272Z,85.78
2023-04-21T05:18:13.109Z,86.03
2023-04-21T05:20:42.599Z,86.05
2023-04-21T05:23:10.501Z,85.95
2023-04-21T05:25:38.645Z,85.96
2023-04-21T05:28:06.459Z,85.90
2023-04-21T05:30:34.248Z,85.86
2023-04-21T05:33:02.038Z,85.70
2023-04-21T05:35:35.466Z,85.71
2023-04-21T05:38:04.495Z,85.67
2023-04-21T05:40:32.289Z,85.61
2023-04-21T05:43:00.032Z,85.71
2023-04-21T05:45:27.801Z,85.69
2023-04-21T05:47:55.856Z,85.71
2023-04-21T05:50:26.341Z,85.74
2023-04-21T05:52:54.103Z,85.91
2023-04-21T05:55:21.991Z,85.87
2023-04-21T05:57:49.840Z,85.91
2023-04-21T06:00:17.950Z,85.90
2023-04-21T06:02:45.891Z,86.07
2023-04-21T06:05:13.889Z,85.93
2023-04-21T06:07:41.794Z,85.87
2023-04-21T06:10:13.021Z,85.85
2023-04-21T06:12:40.805Z,85.60
2023-04-21T06:15:09.690Z,85.60
2023-04-21T06:17:37.485Z,85.56
2023-04-21T06:20:07.972Z,85.37
2023-04-21T06:22:35.739Z,85.06
2023-04-21T06:25:04.670Z,84.81
2023-04-21T06:27:32.766Z,84.72
2023-04-21T06:30:00.679Z,84.69
2023-04-21T06:32:28.514Z,84.39
2023-04-21T06:34:56.668Z,84.34
2023-04-21T06:37:24.581Z,84.30
2023-04-21T06:39:52.318Z,84.35
2023-04-21T06:42:20.200Z,84.19
2023-04-21T06:44:48.908Z,82.81
2023-04-21T06:47:18.406Z,82.48
2023-04-21T06:49:46.538Z,82.17
2023-04-21T06:52:14.600Z,82.35
2023-04-21T06:54:42.433Z,81.84
2023-04-21T06:57:10.489Z,80.83
2023-04-21T06:59:38.469Z,81.23
2023-04-21T07:02:06.415Z,81.40
2023-04-21T07:04:34.379Z,81.43
2023-04-21T07:07:03.390Z,81.44
2023-04-21T07:09:33.754Z,81.55
2023-04-21T07:12:02.762Z,81.18
2023-04-21T07:14:30.869Z,81.56
2023-04-21T07:16:59.360Z,81.76
2023-04-21T07:19:27.583Z,81.94
2023-04-21T07:21:55.367Z,82.24
2023-04-21T07:24:23.147Z,82.00
2023-04-21T07:26:50.999Z,82.43
2023-04-21T07:29:18.929Z,82.09
2023-04-21T07:31:48.253Z,82.01
2023-04-21T07:34:16.169Z,81.82
2023-04-21T07:36:44.153Z,81.76
2023-04-21T07:39:12.110Z,81.27
2023-04-21T07:41:39.972Z,81.39
2023-04-21T07:44:07.762Z,81.30
2023-04-21T07:46:35.709Z,80.96
2023-04-21T07:49:04.209Z,80.82
2023-04-21T07:51:32.742Z,81.08
2023-04-21T07:54:00.698Z,81.41
2023-04-21T07:56:28.522Z,81.67
2023-04-21T07:58:56.528Z,81.36
2023-04-21T08:01:24.294Z,80.84
2023-04-21T08:03:52.217Z,79.99
2023-04-21T08:06:20.310Z,80.32
2023-04-21T08:08:48.150Z,80.34
2023-04-21T08:11:16.112Z,80.44
2023-04-21T08:13:43.904Z,80.63
2023-04-21T08:16:11.788Z,80.82
2023-04-21T08:18:39.965Z,80.03
2023-04-21T08:21:08.832Z,80.20
2023-04-21T08:23:36.708Z,80.07
2023-04-21T08:26:04.917Z,80.18
2023-04-21T08:28:32.732Z,80.16
2023-04-21T08:31:02.114Z,80.59
2023-04-21T08:33:30.971Z,80.07
2023-04-21T08:36:05.384Z,79.99
2023-04-21T08:38:35.996Z,79.95
2023-04-21T08:41:05.305Z,80.23
2023-04-21T08:43:33.305Z,80.05
2023-04-21T08:46:07.338Z,80.21
2023-04-21T08:48:39.040Z,80.67
2023-04-21T08:51:09.817Z,80.21
2023-04-21T08:53:38.390Z,80.31
2023-04-21T08:58:37.783Z,80.97
2023-04-21T09:01:05.884Z,80.84
2023-04-21T09:03:34.352Z,80.35
2023-04-21T09:06:06.105Z,80.54
2023-04-21T09:08:38.373Z,80.38
2023-04-21T09:11:06.693Z,80.49
2023-04-21T09:13:37.130Z,79.84
2023-04-21T09:16:21.264Z,80.46
2023-04-21T09:18:51.579Z,80.41
2023-04-21T09:21:20.462Z,80.89
2023-04-21T09:23:51.608Z,81.35
2023-04-21T09:26:23.196Z,80.96
2023-04-21T09:28:53.228Z,80.91
2023-04-21T09:31:25.122Z,81.62
2023-04-21T09:33:59.666Z,81.17
2023-04-21T09:36:31.853Z,81.47
2023-04-21T09:41:34.312Z,80.88
2023-04-21T09:44:04.275Z,81.18
2023-04-21T09:46:37.148Z,80.80
2023-04-21T09:49:06.515Z,80.89
2023-04-21T09:56:53.018Z,80.88
2023-04-21T09:59:27.664Z,80.53
2023-04-21T10:01:59.670Z,80.80
2023-04-21T10:04:30.648Z,80.54
2023-04-21T10:07:00.927Z,80.95
2023-04-21T10:09:41.758Z,80.88
2023-04-21T10:12:13.812Z,81.04
2023-04-21T10:14:41.990Z,81.49
2023-04-21T10:17:11.212Z,81.60
2023-04-21T10:19:51.405Z,81.50
2023-04-21T10:22:36.221Z,81.27
2023-04-21T10:25:09.805Z,81.36
2023-04-21T10:27:41.814Z,81.44
2023-04-21T10:30:26.695Z,81.90
2023-04-21T10:33:05.929Z,81.91
2023-04-21T10:36:04.967Z,81.84
2023-04-21T10:38:42.252Z,81.71
2023-04-21T10:41:30.640Z,82.04
2023-04-21T10:44:12.655Z,81.89
2023-04-21T10:46:49.056Z,82.54
2023-04-21T10:49:28.457Z,82.73
2023-04-21T10:52:05.518Z,82.98
2023-04-21T10:54:48.304Z,82.86
2023-04-21T10:57:20.696Z,83.01
2023-04-21T10:59:52.079Z,83.27
2023-04-21T11:02:21.415Z,83.57
2023-04-21T11:04:54.380Z,83.37
2023-04-21T11:07:26.536Z,83.54
2023-04-21T11:10:04.955Z,83.91
2023-04-21T11:12:37.689Z,83.86
2023-04-21T11:15:13.254Z,83.26
2023-04-21T11:17:43.693Z,83.52
2023-04-21T11:20:11.978Z,83.80
2023-04-21T11:22:39.932Z,83.80
2023-04-21T11:25:18.408Z,83.86
2023-04-21T11:28:00.220Z,83.80
2023-04-21T11:30:34.225Z,83.03
2023-04-21T11:33:02.865Z,83.14
2023-04-21T11:35:32.051Z,83.12
2023-04-21T11:38:05.962Z,83.32
2023-04-21T11:40:49.478Z,83.47
2023-04-21T11:43:17.553Z,83.42
2023-04-21T11:45:50.678Z,82.58
2023-04-21T11:48:19.662Z,82.74
2023-04-21T11:50:50.462Z,82.61
2023-04-21T11:53:19.805Z,82.52
2023-04-21T11:55:47.880Z,82.70
2023-04-21T11:58:17.809Z,81.77
2023-04-21T12:00:46.357Z,81.28
2023-04-21T12:03:14.650Z,80.75
2023-04-21T12:05:42.598Z,80.85
2023-04-21T12:08:15.853Z,80.16
2023-04-21T12:10:48.850Z,79.66
2023-04-21T12:13:23.552Z,78.96
2023-04-21T12:15:51.474Z,78.52
2023-04-21T12:18:19.263Z,78.17
2023-04-21T12:20:51.827Z,78.01
2023-04-21T12:23:19.661Z,78.54
2023-04-21T12:25:47.573Z,78.82
2023-04-21T12:28:17.775Z,78.37
2023-04-21T12:30:45.664Z,78.69
2023-04-21T12:33:13.529Z,78.75
2023-04-21T12:35:41.493Z,78.81
2023-04-21T12:38:09.539Z,76.83
2023-04-21T12:40:37.410Z,75.59
2023-04-21T12:43:05.230Z,76.19
2023-04-21T12:45:33.195Z,74.86
2023-04-21T12:48:01.330Z,74.25
2023-04-21T12:50:29.173Z,74.47
2023-04-21T12:52:56.965Z,75.22
2023-04-21T12:55:24.916Z,76.02
2023-04-21T12:57:52.875Z,74.68
2023-04-21T13:00:21.068Z,74.31
2023-04-21T13:02:49.046Z,75.12
2023-04-21T13:05:17.062Z,75.20
2023-04-21T13:07:45.407Z,73.18
2023-04-21T13:10:13.279Z,72.37
2023-04-21T13:12:42.031Z,72.58
2023-04-21T13:15:11.089Z,73.27
2023-04-21T13:17:38.920Z,73.86
2023-04-21T13:20:07.900Z,74.12
2023-04-21T13:22:36.055Z,73.51
2023-04-21T13:25:04.737Z,73.99
2023-04-21T13:27:34.095Z,73.73
2023-04-21T13:30:01.987Z,73.22
2023-04-21T13:32:29.849Z,73.07
2023-04-21T13:34:58.175Z,72.25
2023-04-21T13:37:26.088Z,72.38
2023-04-21T13:39:54.001Z,71.55
2023-04-21T13:42:21.930Z,72.44
2023-04-21T13:44:49.866Z,71.49
2023-04-21T13:47:17.721Z,72.08
2023-04-21T13:49:46.122Z,71.43
2023-04-21T13:52:13.980Z,71.97
2023-04-21T13:54:42.307Z,72.44
2023-04-21T13:57:10.713Z,73.35
2023-04-21T13:59:38.918Z,72.81
2023-04-21T14:02:07.378Z,71.91
2023-04-21T14:04:37.286Z,72.03
2023-04-21T14:07:08.108Z,70.83
2023-04-21T14:09:36.018Z,70.47
2023-04-21T14:12:04.132Z,70.80
2023-04-21T14:17:05.751Z,70.05
2023-04-21T14:19:35.490Z,70.48
2023-04-21T14:22:03.638Z,70.79
2023-04-21T14:24:32.389Z,70.44
2023-04-21T14:27:01.146Z,68.92
2023-04-21T14:29:28.943Z,69.82
2023-04-21T14:31:58.689Z,69.86
2023-04-21T14:34:26.918Z,70.35
2023-04-21T14:36:54.904Z,69.54
2023-04-21T14:39:23.105Z,69.72
2023-04-21T14:41:50.991Z,69.58
2023-04-21T14:44:19.086Z,69.01
2023-04-21T14:46:57.071Z,68.43
2023-04-21T14:49:34.066Z,67.83
2023-04-21T14:52:03.773Z,69.41
2023-04-21T14:54:31.772Z,69.00
2023-04-21T14:57:17.561Z,69.12
2023-04-21T14:59:49.548Z,69.13
2023-04-21T15:02:19.389Z,68.91
2023-04-21T15:04:47.673Z,69.04
2023-04-21T15:07:18.722Z,69.42
2023-04-21T15:09:51.555Z,68.76
2023-04-21T15:12:19.670Z,68.89
2023-04-21T15:14:47.565Z,69.87
2023-04-21T15:17:15.315Z,68.38
2023-04-21T15:19:43.300Z,68.23
2023-04-21T15:22:12.406Z,67.91
2023-04-21T15:24:40.227Z,67.84
2023-04-21T15:27:08.020Z,66.60
2023-04-21T15:29:36.068Z,66.76
2023-04-21T15:32:04.512Z,67.05
2023-04-21T15:34:32.366Z,66.00
2023-04-21T15:37:02.204Z,64.74
2023-04-21T15:39:30.118Z,65.34
2023-04-21T15:41:59.290Z,65.81
2023-04-21T15:44:27.216Z,65.79
2023-04-21T15:46:55.125Z,66.65
2023-04-21T15:49:25.269Z,66.30
2023-04-21T15:51:53.965Z,67.22
2023-04-21T15:54:21.842Z,64.31
2023-04-21T15:56:50.492Z,63.20
2023-04-21T15:59:18.363Z,63.42
2023-04-21T16:01:46.319Z,64.26
2023-04-21T16:04:15.140Z,64.89
2023-04-21T16:06:43.088Z,65.50
2023-04-21T16:09:11.142Z,65.56
2023-04-21T16:11:39.294Z,65.70
2023-04-21T16:14:07.194Z,64.10
2023-04-21T16:16:37.217Z,63.79
2023-04-21T16:19:05.368Z,64.17
2023-04-21T16:21:33.451Z,63.48
2023-04-21T16:24:01.524Z,63.87
2023-04-21T16:26:33.208Z,62.65
2023-04-21T16:29:01.227Z,63.02
2023-04-21T16:31:29.113Z,61.97
2023-04-21T16:33:59.941Z,63.67
2023-04-21T16:36:28.864Z,63.22
2023-04-21T16:38:56.794Z,63.05
2023-04-21T16:41:25.509Z,64.32
2023-04-21T16:43:53.569Z,65.35
2023-04-21T16:46:22.086Z,65.26
2023-04-21T16:48:50.144Z,65.46
2023-04-21T16:51:18.057Z,63.12
2023-04-21T16:53:46.280Z,62.03
2023-04-21T16:56:14.881Z,61.94
2023-04-21T16:58:42.812Z,61.28
2023-04-21T17:01:10.843Z,60.99
2023-04-21T17:03:38.836Z,59.98
2023-04-21T17:06:10.771Z,59.43
2023-04-21T17:08:39.045Z,59.47
2023-04-21T17:11:06.840Z,59.78
2023-04-21T17:13:38.176Z,58.99
2023-04-21T17:16:09.434Z,60.13
2023-04-21T17:18:37.305Z,60.53
2023-04-21T17:21:06.300Z,61.23
2023-04-21T17:23:34.228Z,60.96
2023-04-21T17:26:03.685Z,60.92
2023-04-21T17:28:32.146Z,61.37
2023-04-21T17:31:13.665Z,61.98
2023-04-21T17:33:44.227Z,61.78
2023-04-21T17:36:12.656Z,62.08
2023-04-21T17:38:42.651Z,62.50
2023-04-21T17:41:10.726Z,62.52
2023-04-21T17:43:38.517Z,62.41
2023-04-21T17:46:09.575Z,62.50
2023-04-21T17:48:37.740Z,62.91
2023-04-21T17:51:06.056Z,62.96
2023-04-21T17:53:34.013Z,63.05
2023-04-21T17:56:02.629Z,62.72
2023-04-21T17:58:32.700Z,62.46
2023-04-21T18:01:01.469Z,62.74
2023-04-21T18:03:29.480Z,62.73
2023-04-21T18:05:57.440Z,63.18
2023-04-21T18:08:25.641Z,63.27
2023-04-21T18:10:55.193Z,63.83
2023-04-21T18:13:23.117Z,64.17
2023-04-21T18:15:51.059Z,64.56
2023-04-21T18:18:18.978Z,64.80
2023-04-21T18:20:48.311Z,65.49
2023-04-21T18:23:16.145Z,65.36
2023-04-21T18:25:44.945Z,65.56
2023-04-21T18:28:13.259Z,66.51
2023-04-21T18:30:42.161Z,66.31
2023-04-21T18:33:11.639Z,65.81
2023-04-21T18:35:41.521Z,66.41
2023-04-21T18:38:11.504Z,66.28
2023-04-21T18:40:40.720Z,66.02
2023-04-21T18:43:12.483Z,65.77
2023-04-21T18:45:40.604Z,66.38
2023-04-21T18:48:08.602Z,66.97
2023-04-21T18:50:40.128Z,67.20
2023-04-21T18:53:09.312Z,67.59
2023-04-21T18:55:37.722Z,67.87
2023-04-21T18:58:06.009Z,67.74
2023-04-21T19:00:37.235Z,68.34
2023-04-21T19:03:06.271Z,68.69
2023-04-21T19:05:36.905Z,68.71
2023-04-21T19:08:05.325Z,68.43
2023-04-21T19:10:37.809Z,68.69
2023-04-21T19:13:05.880Z,68.91
2023-04-21T19:15:33.678Z,69.58
2023-04-21T19:18:01.625Z,69.99
2023-04-21T19:20:30.273Z,70.33
2023-04-21T19:22:58.188Z,70.58
2023-04-21T19:25:26.030Z,70.94
2023-04-21T19:27:54.051Z,71.10
2023-04-21T19:30:22.087Z,71.33
2023-04-21T19:32:49.899Z,71.71
2023-04-21T19:35:17.935Z,72.00
2023-04-21T19:37:45.864Z,72.15
2023-04-21T19:40:14.065Z,72.60
2023-04-21T19:42:42.075Z,72.66
2023-04-21T19:45:11.003Z,72.99
2023-04-21T19:47:38.926Z,73.16
2023-04-21T19:50:08.361Z,73.57
2023-04-21T19:52:36.308Z,73.71
2023-04-21T19:55:05.089Z,73.94
2023-04-21T19:57:32.960Z,74.14
2023-04-21T20:00:01.118Z,74.30
2023-04-21T20:02:29.044Z,74.58
2023-04-21T20:04:57.104Z,74.87
2023-04-21T20:07:25.129Z,75.30
2023-04-21T20:09:53.069Z,75.67
2023-04-21T20:12:21.074Z,75.70
2023-04-21T20:14:48.896Z,75.94
2023-04-21T20:17:16.645Z,75.98
2023-04-21T20:19:46.846Z,76.05
2023-04-21T20:22:15.204Z,76.19
2023-04-21T20:24:43.115Z,76.35
2023-04-21T20:27:10.952Z,76.40
2023-04-21T20:29:39.152Z,76.41
2023-04-21T20:32:07.402Z,76.59
2023-04-21T20:34:36.228Z,76.54
2023-04-21T20:37:05.789Z,76.76
2023-04-21T20:39:33.632Z,77.05
2023-04-21T20:42:12.725Z,77.17
2023-04-21T20:44:43.358Z,77.11
2023-04-21T20:47:12.130Z,77.33
2023-04-21T20:49:40.494Z,77.43
2023-04-21T20:52:09.007Z,77.55
2023-04-21T20:54:36.847Z,77.74
2023-04-21T20:57:07.243Z,77.79
2023-04-21T20:59:35.318Z,77.76
2023-04-21T21:02:03.523Z,77.60
2023-04-21T21:04:31.532Z,77.66
2023-04-21T21:07:01.237Z,77.81
2023-04-21T21:09:30.982Z,77.88
2023-04-21T21:11:58.977Z,78.08
2023-04-21T21:14:27.014Z,78.17
2023-04-21T21:16:55.478Z,78.10
2023-04-21T21:19:23.469Z,78.50
2023-04-21T21:21:51.286Z,78.79
2023-04-21T21:24:19.062Z,78.73
2023-04-21T21:26:46.881Z,78.77
2023-04-21T21:29:14.749Z,78.86
2023-04-21T21:31:42.605Z,78.81
2023-04-21T21:34:10.515Z,78.85
2023-04-21T21:36:38.415Z,78.84
2023-04-21T21:39:07.742Z,78.82
2023-04-21T21:41:36.945Z,78.91
2023-04-21T21:44:05.021Z,78.82
2023-04-21T21:46:32.926Z,78.87
2023-04-21T21:49:00.750Z,78.90
2023-04-21T21:51:28.909Z,78.92
2023-04-21T21:53:56.667Z,78.94
2023-04-21T21:56:25.912Z,79.11
2023-04-21T21:58:54.613Z,79.11
2023-04-21T22:01:24.612Z,79.10
2023-04-21T22:03:53.839Z,79.26
2023-04-21T22:06:26.773Z,78.91
2023-04-21T22:08:55.062Z,78.96
2023-04-21T22:11:22.905Z,79.11
2023-04-21T22:13:51.406Z,78.93
2023-04-21T22:16:19.311Z,78.92
2023-04-21T22:18:48.233Z,79.08
2023-04-21T22:21:16.171Z,79.19
2023-04-21T22:23:44.182Z,79.01
2023-04-21T22:26:11.974Z,79.06
2023-04-21T22:28:41.826Z,79.53
2023-04-21T22:31:10.566Z,79.68
2023-04-21T22:33:38.543Z,79.53
2023-04-21T22:36:08.534Z,79.52
2023-04-21T22:38:38.539Z,79.58
2023-04-21T22:41:07.909Z,79.42
2023-04-21T22:43:36.000Z,79.45
2023-04-21T22:46:04.066Z,79.64
2023-04-21T22:48:32.786Z,79.73
2023-04-21T22:51:01.635Z,79.97
2023-04-21T22:53:29.584Z,80.17
2023-04-21T22:55:57.517Z,80.30
2023-04-21T22:58:26.422Z,80.28
2023-04-21T23:00:54.320Z,80.35
2023-04-21T23:03:23.908Z,80.29
2023-04-21T23:05:52.109Z,80.24
2023-04-21T23:08:19.901Z,80.00
2023-04-21T23:10:48.021Z,80.07
2023-04-21T23:13:15.834Z,79.93
2023-04-21T23:15:43.571Z,79.62
2023-04-21T23:18:11.453Z,79.75
2023-04-21T23:20:39.397Z,79.83
2023-04-21T23:23:07.344Z,79.99
2023-04-21T23:25:36.184Z,79.91
2023-04-21T23:28:04.197Z,79.87
2023-04-21T23:30:32.144Z,79.96
2023-04-21T23:33:00.230Z,79.79
2023-04-21T23:35:28.139Z,79.77
2023-04-21T23:37:56.111Z,79.93
2023-04-21T23:40:23.973Z,80.19
2023-04-21T23:42:51.874Z,79.79
2023-04-21T23:45:19.877Z,79.57
2023-04-21T23:47:47.792Z,79.64
2023-04-21T23:50:15.700Z,79.71
2023-04-21T23:52:44.601Z,79.80
2023-04-21T23:55:12.822Z,79.74
2023-04-21T23:57:40.716Z,79.86
